Terminal Aerodrome Forecast
Issued by NWS

Home | Current Version | Previous Version | Text Only | Print | Product List | Glossary On
Versions: 1 2 3 4 5 6 7 8 9 10 11 12 13 14 15 16 17 18 19 20 21 22 23 24 25 26 27
000
FTUS46 KLOX 051730
TAFOXR
TAF
KOXR 051730Z 0518/0618 27008KT P6SM OVC012
     FM052200 27014KT P6SM BKN015
     FM060300 27007KT P6SM OVC010
     FM060600 VRB03KT P6SM OVC008
     FM061500 28006KT P6SM OVC012=

USA.gov is the U.S. government's official web portal to all federal, state and local government web resources and services.